sensor_id;sensor_type;location;lat;lon;timestamp;pressure;altitude;pressure_sealevel;temperature;humidity
40315;BME280;26021;45.640;11.302;2022-11-04T00:01:28;97964.13;;;13.85;100.00
40315;BME280;26021;45.640;11.302;2022-11-04T00:03:53;98001.34;;;14.13;100.00
40315;BME280;26021;45.640;11.302;2022-11-04T00:06:20;97968.84;;;13.90;100.00
40315;BME280;26021;45.640;11.302;2022-11-04T00:08:53;97986.88;;;14.14;100.00
40315;BME280;26021;45.640;11.302;2022-11-04T00:11:19;97938.75;;;13.81;100.00
40315;BME280;26021;45.640;11.302;2022-11-04T00:14:12;97979.13;;;14.24;100.00
40315;BME280;26021;45.640;11.302;2022-11-04T00:16:38;97981.28;;;14.16;100.00
40315;BME280;26021;45.640;11.302;2022-11-04T00:19:22;97958.75;;;14.10;100.00
40315;BME280;26021;45.640;11.302;2022-11-04T00:21:48;97947.16;;;14.10;100.00
40315;BME280;26021;45.640;11.302;2022-11-04T00:24:33;97909.50;;;13.91;100.00
40315;BME280;26021;45.640;11.302;2022-11-04T00:27:09;97910.09;;;13.93;100.00
40315;BME280;26021;45.640;11.302;2022-11-04T00:29:53;97931.31;;;14.02;100.00
40315;BME280;26021;45.640;11.302;2022-11-04T00:32:19;97875.47;;;13.60;100.00
40315;BME280;26021;45.640;11.302;2022-11-04T00:35:03;97904.28;;;13.96;100.00
40315;BME280;26021;45.640;11.302;2022-11-04T00:37:29;97892.31;;;13.92;100.00
40315;BME280;26021;45.640;11.302;2022-11-04T00:39:54;97873.69;;;13.73;100.00
40315;BME280;26021;45.640;11.302;2022-11-04T00:42:20;97884.38;;;13.79;100.00
40315;BME280;26021;45.640;11.302;2022-11-04T00:44:45;97879.94;;;13.91;100.00
40315;BME280;26021;45.640;11.302;2022-11-04T00:47:11;97841.66;;;13.71;100.00
40315;BME280;26021;45.640;11.302;2022-11-04T00:49:36;97880.88;;;13.79;100.00
40315;BME280;26021;45.640;11.302;2022-11-04T00:52:02;97795.19;;;13.21;100.00
40315;BME280;26021;45.640;11.302;2022-11-04T00:54:27;97866.06;;;13.70;100.00
40315;BME280;26021;45.640;11.302;2022-11-04T00:56:53;97858.69;;;13.65;100.00
40315;BME280;26021;45.640;11.302;2022-11-04T00:59:19;97831.94;;;13.52;100.00
40315;BME280;26021;45.640;11.302;2022-11-04T01:01:44;97854.50;;;13.69;100.00
40315;BME280;26021;45.640;11.302;2022-11-04T01:04:10;97862.19;;;13.65;100.00
40315;BME280;26021;45.640;11.302;2022-11-04T01:06:36;97851.66;;;13.64;100.00
40315;BME280;26021;45.640;11.302;2022-11-04T01:09:05;97845.59;;;13.50;100.00
40315;BME280;26021;45.640;11.302;2022-11-04T01:11:32;97836.69;;;13.50;100.00
40315;BME280;26021;45.640;11.302;2022-11-04T01:13:58;97812.19;;;13.40;100.00
40315;BME280;26021;45.640;11.302;2022-11-04T01:16:23;97821.34;;;13.57;100.00
40315;BME280;26021;45.640;11.302;2022-11-04T01:18:49;97829.63;;;13.55;100.00
40315;BME280;26021;45.640;11.302;2022-11-04T01:21:15;97785.88;;;13.23;100.00
40315;BME280;26021;45.640;11.302;2022-11-04T01:23:44;97816.31;;;13.42;100.00
40315;BME280;26021;45.640;11.302;2022-11-04T01:26:21;97808.97;;;13.56;100.00
40315;BME280;26021;45.640;11.302;2022-11-04T01:28:48;97768.38;;;13.14;100.00
40315;BME280;26021;45.640;11.302;2022-11-04T01:31:16;97805.91;;;13.71;100.00
40315;BME280;26021;45.640;11.302;2022-11-04T01:33:42;97799.88;;;13.75;100.00
40315;BME280;26021;45.640;11.302;2022-11-04T01:36:09;97802.50;;;13.82;100.00
40315;BME280;26021;45.640;11.302;2022-11-04T01:38:35;97776.44;;;13.64;100.00
40315;BME280;26021;45.640;11.302;2022-11-04T01:41:01;97739.69;;;13.40;100.00
40315;BME280;26021;45.640;11.302;2022-11-04T01:43:52;97787.41;;;13.99;100.00
40315;BME280;26021;45.640;11.302;2022-11-04T01:48:52;97762.16;;;13.45;100.00
40315;BME280;26021;45.640;11.302;2022-11-04T01:51:19;97755.81;;;13.40;100.00
40315;BME280;26021;45.640;11.302;2022-11-04T01:53:45;97764.41;;;13.48;100.00
40315;BME280;26021;45.640;11.302;2022-11-04T01:56:12;97757.53;;;13.52;100.00
40315;BME280;26021;45.640;11.302;2022-11-04T01:58:48;97754.69;;;13.47;100.00
40315;BME280;26021;45.640;11.302;2022-11-04T02:01:15;97747.22;;;13.49;100.00
40315;BME280;26021;45.640;11.302;2022-11-04T02:06:12;97689.16;;;13.30;100.00
40315;BME280;26021;45.640;11.302;2022-11-04T02:08:39;97712.78;;;13.64;100.00
40315;BME280;26021;45.640;11.302;2022-11-04T02:11:05;97680.16;;;13.61;100.00
40315;BME280;26021;45.640;11.302;2022-11-04T02:13:32;97700.69;;;13.74;100.00
40315;BME280;26021;45.640;11.302;2022-11-04T02:16:21;97700.22;;;13.77;100.00
40315;BME280;26021;45.640;11.302;2022-11-04T02:19:17;97669.41;;;13.61;100.00
40315;BME280;26021;45.640;11.302;2022-11-04T02:24:27;97680.81;;;13.38;100.00
40315;BME280;26021;45.640;11.302;2022-11-04T02:32:24;97671.47;;;13.22;100.00
40315;BME280;26021;45.640;11.302;2022-11-04T02:35:11;97657.53;;;13.32;100.00
40315;BME280;26021;45.640;11.302;2022-11-04T02:45:51;97635.28;;;13.25;100.00
40315;BME280;26021;45.640;11.302;2022-11-04T02:51:01;97607.47;;;13.19;100.00
40315;BME280;26021;45.640;11.302;2022-11-04T02:53:56;97617.19;;;13.39;100.00
40315;BME280;26021;45.640;11.302;2022-11-04T02:56:18;97600.25;;;13.56;100.00
40315;BME280;26021;45.640;11.302;2022-11-04T02:58:57;97591.44;;;13.49;100.00
40315;BME280;26021;45.640;11.302;2022-11-04T03:01:26;97579.13;;;13.23;100.00
40315;BME280;26021;45.640;11.302;2022-11-04T03:04:00;97583.03;;;13.46;100.00
40315;BME280;26021;45.640;11.302;2022-11-04T03:06:27;97572.13;;;13.41;100.00
40315;BME280;26021;45.640;11.302;2022-11-04T03:08:54;97572.94;;;13.59;100.00
40315;BME280;26021;45.640;11.302;2022-11-04T03:11:25;97563.91;;;13.54;100.00
40315;BME280;26021;45.640;11.302;2022-11-04T03:16:26;97553.22;;;13.65;100.00
40315;BME280;26021;45.640;11.302;2022-11-04T03:19:00;97535.91;;;13.61;100.00
40315;BME280;26021;45.640;11.302;2022-11-04T03:21:32;97534.50;;;13.59;100.00
40315;BME280;26021;45.640;11.302;2022-11-04T03:23:58;97524.78;;;13.58;100.00
40315;BME280;26021;45.640;11.302;2022-11-04T03:26:31;97515.75;;;13.41;100.00
40315;BME280;26021;45.640;11.302;2022-11-04T03:34:19;97492.88;;;13.50;100.00
40315;BME280;26021;45.640;11.302;2022-11-04T03:36:45;97498.66;;;13.65;100.00
40315;BME280;26021;45.640;11.302;2022-11-04T03:39:10;97478.03;;;13.47;100.00
40315;BME280;26021;45.640;11.302;2022-11-04T03:41:42;97488.25;;;13.57;100.00
40315;BME280;26021;45.640;11.302;2022-11-04T03:44:11;97486.56;;;13.44;100.00
40315;BME280;26021;45.640;11.302;2022-11-04T03:46:37;97461.56;;;13.44;100.00
40315;BME280;26021;45.640;11.302;2022-11-04T03:49:04;97449.03;;;13.38;100.00
40315;BME280;26021;45.640;11.302;2022-11-04T03:51:30;97479.84;;;13.65;100.00
40315;BME280;26021;45.640;11.302;2022-11-04T03:53:55;97457.97;;;13.50;100.00
40315;BME280;26021;45.640;11.302;2022-11-04T03:59:49;97475.34;;;13.47;100.00
40315;BME280;26021;45.640;11.302;2022-11-04T04:02:22;97470.94;;;13.53;100.00
40315;BME280;26021;45.640;11.302;2022-11-04T04:04:59;97480.03;;;13.52;100.00
40315;BME280;26021;45.640;11.302;2022-11-04T04:07:32;97475.22;;;13.42;100.00
40315;BME280;26021;45.640;11.302;2022-11-04T04:10:08;97471.66;;;13.30;100.00
40315;BME280;26021;45.640;11.302;2022-11-04T04:12:59;97470.72;;;13.36;100.00
40315;BME280;26021;45.640;11.302;2022-11-04T04:15:37;97459.94;;;13.43;100.00
40315;BME280;26021;45.640;11.302;2022-11-04T04:18:09;97419.69;;;13.06;100.00
40315;BME280;26021;45.640;11.302;2022-11-04T04:20:37;97427.41;;;13.32;100.00
40315;BME280;26021;45.640;11.302;2022-11-04T04:23:07;97470.72;;;13.54;100.00
40315;BME280;26021;45.640;11.302;2022-11-04T04:25:55;97451.19;;;13.47;100.00
40315;BME280;26021;45.640;11.302;2022-11-04T04:28:42;97421.53;;;13.24;100.00
40315;BME280;26021;45.640;11.302;2022-11-04T04:31:10;97437.34;;;13.32;100.00
40315;BME280;26021;45.640;11.302;2022-11-04T04:33:38;97436.56;;;13.43;100.00
40315;BME280;26021;45.640;11.302;2022-11-04T04:36:05;97441.63;;;13.51;100.00
40315;BME280;26021;45.640;11.302;2022-11-04T04:38:34;97411.81;;;13.41;100.00
40315;BME280;26021;45.640;11.302;2022-11-04T04:41:28;97434.63;;;13.50;100.00
40315;BME280;26021;45.640;11.302;2022-11-04T04:44:23;97426.34;;;13.63;100.00
40315;BME280;26021;45.640;11.302;2022-11-04T04:47:09;97422.84;;;13.63;100.00
40315;BME280;26021;45.640;11.302;2022-11-04T04:49:35;97385.63;;;13.36;100.00
40315;BME280;26021;45.640;11.302;2022-11-04T04:52:02;97414.22;;;13.73;100.00
40315;BME280;26021;45.640;11.302;2022-11-04T04:54:28;97414.69;;;13.70;100.00
40315;BME280;26021;45.640;11.302;2022-11-04T04:56:53;97406.03;;;13.79;100.00
40315;BME280;26021;45.640;11.302;2022-11-04T04:59:19;97397.28;;;13.72;100.00
40315;BME280;26021;45.640;11.302;2022-11-04T05:01:44;97399.25;;;13.65;100.00
40315;BME280;26021;45.640;11.302;2022-11-04T05:04:10;97403.00;;;13.64;100.00
40315;BME280;26021;45.640;11.302;2022-11-04T05:06:35;97398.66;;;13.63;100.00
40315;BME280;26021;45.640;11.302;2022-11-04T05:09:01;97390.97;;;13.66;100.00
40315;BME280;26021;45.640;11.302;2022-11-04T05:11:26;97388.59;;;13.47;100.00
40315;BME280;26021;45.640;11.302;2022-11-04T05:13:52;97171.09;;;12.28;100.00
40315;BME280;26021;45.640;11.302;2022-11-04T05:16:17;97344.91;;;13.40;100.00
40315;BME280;26021;45.640;11.302;2022-11-04T05:18:42;97377.88;;;13.82;100.00
40315;BME280;26021;45.640;11.302;2022-11-04T05:21:11;97371.09;;;13.79;100.00
40315;BME280;26021;45.640;11.302;2022-11-04T05:23:37;97325.97;;;13.34;100.00
40315;BME280;26021;45.640;11.302;2022-11-04T05:26:02;97371.22;;;13.61;100.00
40315;BME280;26021;45.640;11.302;2022-11-04T05:28:28;97381.03;;;13.79;100.00
40315;BME280;26021;45.640;11.302;2022-11-04T05:30:53;97318.13;;;13.21;100.00
40315;BME280;26021;45.640;11.302;2022-11-04T05:33:19;97323.94;;;13.18;100.00
40315;BME280;26021;45.640;11.302;2022-11-04T05:35:44;97366.41;;;13.40;100.00
40315;BME280;26021;45.640;11.302;2022-11-04T05:38:10;97351.25;;;13.57;100.00
40315;BME280;26021;45.640;11.302;2022-11-04T05:40:35;97317.81;;;13.41;100.00
40315;BME280;26021;45.640;11.302;2022-11-04T05:43:01;97357.56;;;13.74;100.00
40315;BME280;26021;45.640;11.302;2022-11-04T05:45:27;97345.28;;;13.78;100.00
40315;BME280;26021;45.640;11.302;2022-11-04T05:48:01;97331.03;;;13.66;100.00
40315;BME280;26021;45.640;11.302;2022-11-04T05:50:27;97348.44;;;13.63;100.00
40315;BME280;26021;45.640;11.302;2022-11-04T05:52:56;97300.75;;;13.35;100.00
40315;BME280;26021;45.640;11.302;2022-11-04T05:55:21;97352.41;;;13.73;100.00
40315;BME280;26021;45.640;11.302;2022-11-04T05:57:47;97348.22;;;13.65;100.00
40315;BME280;26021;45.640;11.302;2022-11-04T06:00:12;97346.81;;;13.74;100.00
40315;BME280;26021;45.640;11.302;2022-11-04T06:02:38;97328.00;;;13.62;100.00
40315;BME280;26021;45.640;11.302;2022-11-04T06:05:04;97165.69;;;12.58;100.00
40315;BME280;26021;45.640;11.302;2022-11-04T06:07:29;97344.59;;;13.71;100.00
40315;BME280;26021;45.640;11.302;2022-11-04T06:09:55;97334.31;;;13.80;100.00
40315;BME280;26021;45.640;11.302;2022-11-04T06:12:20;97332.31;;;13.75;100.00
40315;BME280;26021;45.640;11.302;2022-11-04T06:14:46;97313.63;;;13.80;100.00
40315;BME280;26021;45.640;11.302;2022-11-04T06:17:16;97324.59;;;13.90;100.00
40315;BME280;26021;45.640;11.302;2022-11-04T06:19:42;97310.34;;;13.90;100.00
40315;BME280;26021;45.640;11.302;2022-11-04T06:22:10;97309.78;;;13.76;100.00
40315;BME280;26021;45.640;11.302;2022-11-04T06:24:35;97328.59;;;13.76;100.00
40315;BME280;26021;45.640;11.302;2022-11-04T06:27:01;97317.38;;;13.56;100.00
40315;BME280;26021;45.640;11.302;2022-11-04T06:29:26;97247.41;;;13.51;100.00
40315;BME280;26021;45.640;11.302;2022-11-04T06:31:52;97314.44;;;13.69;100.00
40315;BME280;26021;45.640;11.302;2022-11-04T06:34:17;97308.38;;;13.74;100.00
40315;BME280;26021;45.640;11.302;2022-11-04T06:36:43;97302.66;;;13.70;100.00
40315;BME280;26021;45.640;11.302;2022-11-04T06:39:08;97313.88;;;13.67;100.00
40315;BME280;26021;45.640;11.302;2022-11-04T06:41:33;97310.13;;;13.91;100.00
40315;BME280;26021;45.640;11.302;2022-11-04T06:43:59;97318.66;;;13.88;100.00
40315;BME280;26021;45.640;11.302;2022-11-04T06:46:36;97317.00;;;13.87;100.00
40315;BME280;26021;45.640;11.302;2022-11-04T06:49:04;97272.16;;;13.64;100.00
40315;BME280;26021;45.640;11.302;2022-11-04T06:51:29;97312.69;;;13.86;100.00
40315;BME280;26021;45.640;11.302;2022-11-04T06:53:58;97331.16;;;13.83;100.00
40315;BME280;26021;45.640;11.302;2022-11-04T06:56:28;97311.53;;;13.71;100.00
40315;BME280;26021;45.640;11.302;2022-11-04T06:58:54;97303.47;;;13.71;100.00
40315;BME280;26021;45.640;11.302;2022-11-04T07:01:21;97316.19;;;13.75;100.00
40315;BME280;26021;45.640;11.302;2022-11-04T07:03:51;97317.97;;;13.70;100.00
40315;BME280;26021;45.640;11.302;2022-11-04T07:06:17;97267.84;;;13.40;100.00
40315;BME280;26021;45.640;11.302;2022-11-04T07:08:44;97328.94;;;13.91;100.00
40315;BME280;26021;45.640;11.302;2022-11-04T07:11:10;97316.06;;;13.93;100.00
40315;BME280;26021;45.640;11.302;2022-11-04T07:13:35;97241.59;;;13.42;100.00
40315;BME280;26021;45.640;11.302;2022-11-04T07:16:04;97326.13;;;13.86;100.00
40315;BME280;26021;45.640;11.302;2022-11-04T07:18:30;97283.97;;;13.52;100.00
40315;BME280;26021;45.640;11.302;2022-11-04T07:20:56;97305.31;;;13.93;100.00
40315;BME280;26021;45.640;11.302;2022-11-04T07:23:21;97304.16;;;14.13;100.00
40315;BME280;26021;45.640;11.302;2022-11-04T07:25:47;97298.97;;;14.11;100.00
40315;BME280;26021;45.640;11.302;2022-11-04T07:28:12;97300.75;;;14.06;100.00
40315;BME280;26021;45.640;11.302;2022-11-04T07:30:38;97295.13;;;14.19;100.00
40315;BME280;26021;45.640;11.302;2022-11-04T07:33:03;97237.91;;;13.83;100.00
40315;BME280;26021;45.640;11.302;2022-11-04T07:35:29;97293.50;;;14.06;100.00
40315;BME280;26021;45.640;11.302;2022-11-04T07:37:54;97285.44;;;14.18;100.00
40315;BME280;26021;45.640;11.302;2022-11-04T07:40:20;97308.31;;;14.32;100.00
40315;BME280;26021;45.640;11.302;2022-11-04T07:42:45;97313.25;;;14.23;100.00
40315;BME280;26021;45.640;11.302;2022-11-04T07:45:10;97312.31;;;14.18;100.00
40315;BME280;26021;45.640;11.302;2022-11-04T07:47:36;97321.09;;;14.13;100.00
40315;BME280;26021;45.640;11.302;2022-11-04T07:50:02;97308.56;;;14.07;100.00
40315;BME280;26021;45.640;11.302;2022-11-04T07:52:27;97321.53;;;14.10;100.00
40315;BME280;26021;45.640;11.302;2022-11-04T07:54:53;97320.50;;;14.11;100.00
40315;BME280;26021;45.640;11.302;2022-11-04T07:57:18;97172.91;;;13.23;100.00
40315;BME280;26021;45.640;11.302;2022-11-04T07:59:44;97324.44;;;14.32;100.00
40315;BME280;26021;45.640;11.302;2022-11-04T08:02:09;97318.97;;;14.27;100.00
40315;BME280;26021;45.640;11.302;2022-11-04T08:04:35;97314.09;;;14.12;100.00
40315;BME280;26021;45.640;11.302;2022-11-04T08:07:01;97362.44;;;14.36;100.00
40315;BME280;26021;45.640;11.302;2022-11-04T08:09:27;97391.81;;;14.25;100.00
40315;BME280;26021;45.640;11.302;2022-11-04T08:11:52;97409.69;;;14.20;100.00
40315;BME280;26021;45.640;11.302;2022-11-04T08:14:17;97387.94;;;14.33;100.00
40315;BME280;26021;45.640;11.302;2022-11-04T08:16:43;97362.09;;;14.09;100.00
40315;BME280;26021;45.640;11.302;2022-11-04T08:19:08;97345.88;;;14.15;100.00
40315;BME280;26021;45.640;11.302;2022-11-04T08:21:34;97317.13;;;14.16;100.00
40315;BME280;26021;45.640;11.302;2022-11-04T08:23:59;97241.41;;;13.95;100.00
40315;BME280;26021;45.640;11.302;2022-11-04T08:26:28;97209.34;;;14.06;100.00
40315;BME280;26021;45.640;11.302;2022-11-04T08:28:54;97239.53;;;14.36;100.00
40315;BME280;26021;45.640;11.302;2022-11-04T08:31:25;97219.00;;;14.30;100.00
40315;BME280;26021;45.640;11.302;2022-11-04T08:33:51;97160.44;;;13.92;100.00
40315;BME280;26021;45.640;11.302;2022-11-04T08:36:22;97187.44;;;14.25;100.00
40315;BME280;26021;45.640;11.302;2022-11-04T08:38:48;97173.69;;;14.39;100.00
40315;BME280;26021;45.640;11.302;2022-11-04T08:41:16;97159.63;;;14.20;100.00
40315;BME280;26021;45.640;11.302;2022-11-04T08:43:42;97161.06;;;14.11;100.00
40315;BME280;26021;45.640;11.302;2022-11-04T08:46:08;97178.59;;;14.13;100.00
40315;BME280;26021;45.640;11.302;2022-11-04T08:48:35;97187.06;;;14.34;100.00
40315;BME280;26021;45.640;11.302;2022-11-04T08:51:02;97215.53;;;14.18;100.00
40315;BME280;26021;45.640;11.302;2022-11-04T08:53:28;97219.94;;;14.24;100.00
40315;BME280;26021;45.640;11.302;2022-11-04T08:55:53;97244.56;;;14.44;100.00
40315;BME280;26021;45.640;11.302;2022-11-04T08:58:19;97253.09;;;14.70;100.00
40315;BME280;26021;45.640;11.302;2022-11-04T09:00:45;97258.44;;;14.81;100.00
40315;BME280;26021;45.640;11.302;2022-11-04T09:03:11;97249.50;;;15.09;100.00
40315;BME280;26021;45.640;11.302;2022-11-04T09:05:37;97236.78;;;15.21;100.00
40315;BME280;26021;45.640;11.302;2022-11-04T09:08:15;97261.56;;;15.57;100.00
40315;BME280;26021;45.640;11.302;2022-11-04T09:10:46;97252.88;;;15.67;100.00
40315;BME280;26021;45.640;11.302;2022-11-04T09:13:13;97256.44;;;15.72;100.00
40315;BME280;26021;45.640;11.302;2022-11-04T09:15:40;97229.34;;;15.62;100.00
40315;BME280;26021;45.640;11.302;2022-11-04T09:18:06;97253.00;;;15.60;100.00
40315;BME280;26021;45.640;11.302;2022-11-04T09:20:32;97185.63;;;15.05;100.00
40315;BME280;26021;45.640;11.302;2022-11-04T09:22:57;97248.59;;;15.20;100.00
40315;BME280;26021;45.640;11.302;2022-11-04T09:25:23;97245.09;;;15.20;100.00
40315;BME280;26021;45.640;11.302;2022-11-04T09:27:48;97255.47;;;15.28;100.00
40315;BME280;26021;45.640;11.302;2022-11-04T09:30:14;97243.88;;;15.11;100.00
40315;BME280;26021;45.640;11.302;2022-11-04T09:32:40;97197.53;;;14.92;100.00
40315;BME280;26021;45.640;11.302;2022-11-04T09:35:06;97243.31;;;15.25;100.00
40315;BME280;26021;45.640;11.302;2022-11-04T09:37:31;97240.53;;;15.04;100.00
40315;BME280;26021;45.640;11.302;2022-11-04T09:39:57;97230.34;;;15.06;100.00
40315;BME280;26021;45.640;11.302;2022-11-04T09:44:57;97232.78;;;14.90;100.00
40315;BME280;26021;45.640;11.302;2022-11-04T09:47:25;97236.38;;;15.13;100.00
40315;BME280;26021;45.640;11.302;2022-11-04T09:49:53;97243.88;;;15.27;100.00
40315;BME280;26021;45.640;11.302;2022-11-04T09:57:30;97190.03;;;15.49;100.00
40315;BME280;26021;45.640;11.302;2022-11-04T09:59:58;97242.00;;;16.00;100.00
40315;BME280;26021;45.640;11.302;2022-11-04T10:05:35;97246.81;;;16.42;96.29
40315;BME280;26021;45.640;11.302;2022-11-04T10:11:07;97258.34;;;15.94;96.23
40315;BME280;26021;45.640;11.302;2022-11-04T10:21:57;97281.75;;;15.21;99.20
40315;BME280;26021;45.640;11.302;2022-11-04T10:27:03;97276.31;;;14.87;98.49
40315;BME280;26021;45.640;11.302;2022-11-04T10:29:45;97282.78;;;15.03;99.05
40315;BME280;26021;45.640;11.302;2022-11-04T10:32:23;97285.16;;;15.16;99.24
40315;BME280;26021;45.640;11.302;2022-11-04T10:34:59;97283.63;;;15.20;90.21
40315;BME280;26021;45.640;11.302;2022-11-04T10:37:26;97282.88;;;15.42;90.53
40315;BME280;26021;45.640;11.302;2022-11-04T10:39:59;97279.94;;;15.43;91.89
40315;BME280;26021;45.640;11.302;2022-11-04T10:42:25;97290.81;;;15.48;88.77
40315;BME280;26021;45.640;11.302;2022-11-04T10:44:51;97295.78;;;15.56;85.81
40315;BME280;26021;45.640;11.302;2022-11-04T10:47:54;97293.56;;;15.37;91.47
40315;BME280;26021;45.640;11.302;2022-11-04T10:50:29;97297.81;;;15.49;90.28
40315;BME280;26021;45.640;11.302;2022-11-04T10:53:18;97296.75;;;15.50;88.16
40315;BME280;26021;45.640;11.302;2022-11-04T10:58:26;97296.75;;;15.50;86.82
40315;BME280;26021;45.640;11.302;2022-11-04T11:00:52;97303.81;;;15.68;85.62
40315;BME280;26021;45.640;11.302;2022-11-04T11:03:27;97305.34;;;15.81;82.70
40315;BME280;26021;45.640;11.302;2022-11-04T11:05:53;97305.19;;;15.87;78.27
40315;BME280;26021;45.640;11.302;2022-11-04T11:08:29;97299.69;;;15.49;82.03
40315;BME280;26021;45.640;11.302;2022-11-04T11:10:54;97298.41;;;15.35;88.14
40315;BME280;26021;45.640;11.302;2022-11-04T11:13:34;97308.69;;;15.21;86.55
40315;BME280;26021;45.640;11.302;2022-11-04T11:16:32;97307.28;;;15.18;83.60
40315;BME280;26021;45.640;11.302;2022-11-04T11:19:13;97297.31;;;15.52;83.91
40315;BME280;26021;45.640;11.302;2022-11-04T11:21:45;97305.25;;;15.42;83.03
40315;BME280;26021;45.640;11.302;2022-11-04T11:24:19;97310.63;;;15.25;85.76
40315;BME280;26021;45.640;11.302;2022-11-04T11:26:45;97313.41;;;15.47;85.36
40315;BME280;26021;45.640;11.302;2022-11-04T11:29:29;97300.34;;;15.56;80.15
40315;BME280;26021;45.640;11.302;2022-11-04T11:31:57;97297.19;;;15.59;79.68
40315;BME280;26021;45.640;11.302;2022-11-04T11:34:27;97238.72;;;15.26;68.59
40315;BME280;26021;45.640;11.302;2022-11-04T11:36:56;97287.50;;;15.97;68.19
40315;BME280;26021;45.640;11.302;2022-11-04T11:39:27;97283.00;;;16.02;67.06
40315;BME280;26021;45.640;11.302;2022-11-04T11:42:00;97283.75;;;15.98;65.75
40315;BME280;26021;45.640;11.302;2022-11-04T11:44:32;97286.09;;;16.11;63.86
40315;BME280;26021;45.640;11.302;2022-11-04T11:47:04;97220.22;;;15.85;61.71
40315;BME280;26021;45.640;11.302;2022-11-04T11:49:32;97284.97;;;16.29;60.52
40315;BME280;26021;45.640;11.302;2022-11-04T11:52:37;97286.41;;;16.58;64.45
40315;BME280;26021;45.640;11.302;2022-11-04T11:55:18;97250.97;;;16.49;59.58
40315;BME280;26021;45.640;11.302;2022-11-04T12:00:19;97294.25;;;16.81;58.24
40315;BME280;26021;45.640;11.302;2022-11-04T12:03:24;97256.47;;;16.60;55.71
40315;BME280;26021;45.640;11.302;2022-11-04T12:06:07;97290.44;;;16.77;54.63
40315;BME280;26021;45.640;11.302;2022-11-04T12:13:59;97270.50;;;16.83;52.19
40315;BME280;26021;45.640;11.302;2022-11-04T12:16:31;97292.75;;;16.96;52.45
40315;BME280;26021;45.640;11.302;2022-11-04T12:19:58;97294.25;;;17.08;51.83
40315;BME280;26021;45.640;11.302;2022-11-04T12:22:11;97245.44;;;16.88;51.36
40315;BME280;26021;45.640;11.302;2022-11-04T12:24:59;97298.13;;;17.18;50.66
40315;BME280;26021;45.640;11.302;2022-11-04T12:33:09;97305.19;;;17.56;50.62
40315;BME280;26021;45.640;11.302;2022-11-04T12:47:14;97295.94;;;17.78;72.15
40315;BME280;26021;45.640;11.302;2022-11-04T12:51:51;97316.28;;;17.86;72.75
40315;BME280;26021;45.640;11.302;2022-11-04T12:57:26;97295.47;;;17.87;71.59
40315;BME280;26021;45.640;11.302;2022-11-04T13:00:03;97318.59;;;17.72;71.42
40315;BME280;26021;45.640;11.302;2022-11-04T13:02:31;97320.56;;;17.50;76.21
40315;BME280;26021;45.640;11.302;2022-11-04T13:08:35;97324.53;;;17.69;77.16
40315;BME280;26021;45.640;11.302;2022-11-04T13:13:08;97327.03;;;17.81;71.76
40315;BME280;26021;45.640;11.302;2022-11-04T13:15:51;97332.41;;;17.76;56.49
40315;BME280;26021;45.640;11.302;2022-11-04T13:18:19;97334.72;;;17.62;52.86
40315;BME280;26021;45.640;11.302;2022-11-04T13:21:00;97311.81;;;17.38;52.45
40315;BME280;26021;45.640;11.302;2022-11-04T13:23:39;97338.63;;;17.44;52.03
40315;BME280;26021;45.640;11.302;2022-11-04T13:26:12;97294.00;;;16.83;51.41
40315;BME280;26021;45.640;11.302;2022-11-04T13:28:39;97313.34;;;16.75;52.71
40315;BME280;26021;45.640;11.302;2022-11-04T13:31:30;97340.72;;;16.83;51.42
40315;BME280;26021;45.640;11.302;2022-11-04T13:36:39;97347.53;;;17.13;55.34
40315;BME280;26021;45.640;11.302;2022-11-04T13:39:28;97341.91;;;17.20;52.54
40315;BME280;26021;45.640;11.302;2022-11-04T13:44:30;97346.63;;;17.07;52.35
40315;BME280;26021;45.640;11.302;2022-11-04T13:47:04;97348.34;;;17.13;50.01
40315;BME280;26021;45.640;11.302;2022-11-04T13:49:31;97349.06;;;17.09;50.06
40315;BME280;26021;45.640;11.302;2022-11-04T13:52:11;97342.50;;;17.00;50.76
40315;BME280;26021;45.640;11.302;2022-11-04T13:57:21;97299.47;;;16.44;50.06
40315;BME280;26021;45.640;11.302;2022-11-04T14:11:01;97332.72;;;16.50;49.34
40315;BME280;26021;45.640;11.302;2022-11-04T14:18:37;97348.94;;;16.33;51.14
40315;BME280;26021;45.640;11.302;2022-11-04T14:23:36;97339.22;;;16.32;49.57
40315;BME280;26021;45.640;11.302;2022-11-04T14:26:06;97342.97;;;16.09;49.69
40315;BME280;26021;45.640;11.302;2022-11-04T14:28:33;97345.34;;;16.06;50.45
40315;BME280;26021;45.640;11.302;2022-11-04T14:31:07;97362.72;;;16.15;50.00
40315;BME280;26021;45.640;11.302;2022-11-04T14:33:52;97348.38;;;16.09;50.99
40315;BME280;26021;45.640;11.302;2022-11-04T14:39:06;97345.28;;;16.01;50.08
40315;BME280;26021;45.640;11.302;2022-11-04T14:44:13;97184.75;;;14.54;52.29
40315;BME280;26021;45.640;11.302;2022-11-04T14:46:44;97338.47;;;15.31;52.82
40315;BME280;26021;45.640;11.302;2022-11-04T14:52:00;97342.81;;;15.32;50.54
40315;BME280;26021;45.640;11.302;2022-11-04T14:54:29;97356.41;;;15.25;51.63
40315;BME280;26021;45.640;11.302;2022-11-04T14:57:13;97350.31;;;15.30;50.61
40315;BME280;26021;45.640;11.302;2022-11-04T14:59:39;97342.88;;;15.20;49.99
40315;BME280;26021;45.640;11.302;2022-11-04T15:02:15;97337.47;;;15.04;51.36
40315;BME280;26021;45.640;11.302;2022-11-04T15:04:57;97286.41;;;14.80;48.26
40315;BME280;26021;45.640;11.302;2022-11-04T15:07:39;97341.69;;;15.00;51.38
40315;BME280;26021;45.640;11.302;2022-11-04T15:10:34;97343.72;;;14.92;52.27
40315;BME280;26021;45.640;11.302;2022-11-04T15:13:00;97337.19;;;14.77;51.81